首页
METAR-TAF:

METAR-TAF

机场 :

錫達拉皮茲, 艾奥瓦州, 美国

纬度: 41-53-04N, 经度: 091-42-38W, 海拔: 263米

当前天气观测

该预报发布于29分钟前的05:52 UTC
风速8节,风向
温度 27°C
湿度 84%
气压 1006 hPa
能見度: 16.1公里
天空无云

METAR: KCID 250552Z AUTO 18008KT 10SM CLR 27/24 A2971 RMK AO2 SLP054 T02720239 10311 20272 403170194 58005

时间: 01:21 (06:21 UTC)

预报

该预报发布于54分钟前的05:27 UTC
预报有效从25日的 06点(UTC)到 26日的 06点(UTC)
风速12节,风向,有时为20节阵风
能見度: 10公里
少量云层高于8000英尺
从 25日的 0700点(UTC)
风速10节,风向南转西南,有时为19节阵风
能見度: 10公里
多云层高于10000英尺
从 25日的 1700点(UTC)
风速10节,风向西
能見度: 10公里
多云层高于25000英尺
几率 30%
从 25日的 23点(UTC)到 26日的 03点(UTC)
能見度: 8.0公里
多云层高于3500英尺, 积雨云.
雷暴, 小雨
从 26日的 0300点(UTC)
风速5节,风向西南
能見度: 10公里
多云层高于5000英尺, 积雨云.
雷暴, 小雨,

TAF: KCID 250527Z 2506/2606 17012G20KT P6SM FEW080 FM250700 21010G19KT P6SM BKN100 WS020/24045KT FM251700 27010KT P6SM BKN250 PROB30 2523/2603 5SM -TSRA BKN035CB FM260300 22005KT P6SM -TSRA BKN050CB

超过4000个机场的气象观测和天气预报(METAR&TAF报告)。

可查询的气象台以黄色和红色小点在地图上表示。

将鼠标移到小点上方,可查看气象台名称。

然后点击查看天气观测和预报。

如需切换地图:点击带黑十字的绿色按钮放大地图;点击带横线的绿色按钮缩小地图;或者点击绿色箭头查看邻近地区的地图。


METAR-TAF: